sensor_id;sensor_type;location;lat;lon;timestamp;P1;durP1;ratioP1;P2;durP2;ratioP2
75386;SDS011;63966;47.914;22.266;2024-02-21T00:02:59;33.22;;;16.05;;
75386;SDS011;63966;47.914;22.266;2024-02-21T00:06:04;30.55;;;16.48;;
75386;SDS011;63966;47.914;22.266;2024-02-21T00:09:08;31.10;;;16.60;;
75386;SDS011;63966;47.914;22.266;2024-02-21T00:12:12;29.20;;;15.60;;
75386;SDS011;63966;47.914;22.266;2024-02-21T00:15:18;26.08;;;14.82;;
75386;SDS011;63966;47.914;22.266;2024-02-21T00:18:21;28.20;;;16.00;;
75386;SDS011;63966;47.914;22.266;2024-02-21T00:21:29;25.48;;;14.82;;
75386;SDS011;63966;47.914;22.266;2024-02-21T00:24:33;29.63;;;16.07;;
75386;SDS011;63966;47.914;22.266;2024-02-21T00:27:36;33.72;;;16.25;;
75386;SDS011;63966;47.914;22.266;2024-02-21T00:30:41;29.25;;;16.15;;
75386;SDS011;63966;47.914;22.266;2024-02-21T00:33:44;32.17;;;16.40;;
75386;SDS011;63966;47.914;22.266;2024-02-21T00:36:48;31.52;;;16.92;;
75386;SDS011;63966;47.914;22.266;2024-02-21T00:39:53;31.20;;;16.33;;
75386;SDS011;63966;47.914;22.266;2024-02-21T00:42:57;30.85;;;16.13;;
75386;SDS011;63966;47.914;22.266;2024-02-21T00:46:00;29.92;;;15.52;;
75386;SDS011;63966;47.914;22.266;2024-02-21T00:49:03;28.90;;;15.25;;
75386;SDS011;63966;47.914;22.266;2024-02-21T00:52:07;28.73;;;15.55;;
75386;SDS011;63966;47.914;22.266;2024-02-21T00:55:11;28.30;;;15.27;;
75386;SDS011;63966;47.914;22.266;2024-02-21T00:58:14;29.55;;;15.93;;
75386;SDS011;63966;47.914;22.266;2024-02-21T01:01:22;31.52;;;15.27;;
75386;SDS011;63966;47.914;22.266;2024-02-21T01:04:26;27.92;;;15.32;;
75386;SDS011;63966;47.914;22.266;2024-02-21T01:07:29;27.92;;;14.43;;
75386;SDS011;63966;47.914;22.266;2024-02-21T01:10:33;29.83;;;15.10;;
75386;SDS011;63966;47.914;22.266;2024-02-21T01:13:36;26.80;;;14.90;;
75386;SDS011;63966;47.914;22.266;2024-02-21T01:16:40;30.17;;;15.50;;
75386;SDS011;63966;47.914;22.266;2024-02-21T01:19:46;29.20;;;15.38;;
75386;SDS011;63966;47.914;22.266;2024-02-21T01:22:49;31.15;;;16.02;;
75386;SDS011;63966;47.914;22.266;2024-02-21T01:25:53;31.73;;;15.10;;
75386;SDS011;63966;47.914;22.266;2024-02-21T01:28:57;26.85;;;14.98;;
75386;SDS011;63966;47.914;22.266;2024-02-21T01:32:01;32.03;;;16.23;;
75386;SDS011;63966;47.914;22.266;2024-02-21T01:35:04;33.85;;;17.42;;
75386;SDS011;63966;47.914;22.266;2024-02-21T01:38:08;34.38;;;17.25;;
75386;SDS011;63966;47.914;22.266;2024-02-21T01:41:13;35.43;;;17.83;;
75386;SDS011;63966;47.914;22.266;2024-02-21T01:44:16;32.78;;;16.65;;
75386;SDS011;63966;47.914;22.266;2024-02-21T01:47:19;30.45;;;16.33;;
75386;SDS011;63966;47.914;22.266;2024-02-21T01:50:23;30.15;;;16.92;;
75386;SDS011;63966;47.914;22.266;2024-02-21T01:53:30;28.00;;;16.25;;
75386;SDS011;63966;47.914;22.266;2024-02-21T01:56:39;28.03;;;14.50;;
75386;SDS011;63966;47.914;22.266;2024-02-21T01:59:42;30.95;;;16.20;;
75386;SDS011;63966;47.914;22.266;2024-02-21T02:02:47;30.80;;;15.90;;
75386;SDS011;63966;47.914;22.266;2024-02-21T02:05:50;31.65;;;16.52;;
75386;SDS011;63966;47.914;22.266;2024-02-21T02:08:54;33.67;;;16.65;;
75386;SDS011;63966;47.914;22.266;2024-02-21T02:11:58;32.10;;;17.07;;
75386;SDS011;63966;47.914;22.266;2024-02-21T02:15:02;29.02;;;16.27;;
75386;SDS011;63966;47.914;22.266;2024-02-21T02:18:09;31.65;;;16.38;;
75386;SDS011;63966;47.914;22.266;2024-02-21T02:21:20;31.15;;;16.45;;
75386;SDS011;63966;47.914;22.266;2024-02-21T02:24:34;32.40;;;16.85;;
75386;SDS011;63966;47.914;22.266;2024-02-21T02:27:41;33.17;;;17.53;;
75386;SDS011;63966;47.914;22.266;2024-02-21T02:30:49;36.72;;;17.67;;
75386;SDS011;63966;47.914;22.266;2024-02-21T02:33:52;34.58;;;18.42;;
75386;SDS011;63966;47.914;22.266;2024-02-21T02:36:56;40.83;;;19.30;;
75386;SDS011;63966;47.914;22.266;2024-02-21T02:39:59;39.38;;;18.35;;
75386;SDS011;63966;47.914;22.266;2024-02-21T02:43:03;35.60;;;18.00;;
75386;SDS011;63966;47.914;22.266;2024-02-21T02:46:06;33.22;;;17.92;;
75386;SDS011;63966;47.914;22.266;2024-02-21T02:49:10;33.22;;;16.58;;
75386;SDS011;63966;47.914;22.266;2024-02-21T02:52:14;34.58;;;16.80;;
75386;SDS011;63966;47.914;22.266;2024-02-21T02:55:17;32.42;;;17.27;;
75386;SDS011;63966;47.914;22.266;2024-02-21T02:58:21;29.73;;;15.67;;
75386;SDS011;63966;47.914;22.266;2024-02-21T03:01:24;30.77;;;16.73;;
75386;SDS011;63966;47.914;22.266;2024-02-21T03:04:28;34.72;;;17.40;;
75386;SDS011;63966;47.914;22.266;2024-02-21T03:07:32;39.38;;;18.02;;
75386;SDS011;63966;47.914;22.266;2024-02-21T03:10:35;41.53;;;18.65;;
75386;SDS011;63966;47.914;22.266;2024-02-21T03:13:39;35.17;;;18.13;;
75386;SDS011;63966;47.914;22.266;2024-02-21T03:16:42;34.22;;;17.52;;
75386;SDS011;63966;47.914;22.266;2024-02-21T03:19:46;36.05;;;18.92;;
75386;SDS011;63966;47.914;22.266;2024-02-21T03:22:51;35.67;;;18.33;;
75386;SDS011;63966;47.914;22.266;2024-02-21T03:25:55;37.25;;;18.23;;
75386;SDS011;63966;47.914;22.266;2024-02-21T03:28:59;30.47;;;15.80;;
75386;SDS011;63966;47.914;22.266;2024-02-21T03:32:02;32.22;;;17.50;;
75386;SDS011;63966;47.914;22.266;2024-02-21T03:35:06;31.77;;;17.92;;
75386;SDS011;63966;47.914;22.266;2024-02-21T03:38:10;35.38;;;16.80;;
75386;SDS011;63966;47.914;22.266;2024-02-21T03:41:13;34.75;;;17.83;;
75386;SDS011;63966;47.914;22.266;2024-02-21T03:44:16;37.33;;;18.73;;
75386;SDS011;63966;47.914;22.266;2024-02-21T03:47:20;44.28;;;21.63;;
75386;SDS011;63966;47.914;22.266;2024-02-21T03:50:23;40.90;;;20.30;;
75386;SDS011;63966;47.914;22.266;2024-02-21T03:53:29;43.28;;;21.48;;
75386;SDS011;63966;47.914;22.266;2024-02-21T03:56:32;38.78;;;19.98;;
75386;SDS011;63966;47.914;22.266;2024-02-21T03:59:42;40.00;;;20.80;;
75386;SDS011;63966;47.914;22.266;2024-02-21T04:02:46;40.25;;;19.38;;
75386;SDS011;63966;47.914;22.266;2024-02-21T04:05:49;38.30;;;19.10;;
75386;SDS011;63966;47.914;22.266;2024-02-21T04:08:53;36.67;;;19.73;;
75386;SDS011;63966;47.914;22.266;2024-02-21T04:11:57;40.38;;;19.88;;
75386;SDS011;63966;47.914;22.266;2024-02-21T04:15:00;35.47;;;18.30;;
75386;SDS011;63966;47.914;22.266;2024-02-21T04:18:04;37.53;;;19.83;;
75386;SDS011;63966;47.914;22.266;2024-02-21T04:21:08;39.03;;;19.02;;
75386;SDS011;63966;47.914;22.266;2024-02-21T04:24:14;38.05;;;19.50;;
75386;SDS011;63966;47.914;22.266;2024-02-21T04:27:17;37.33;;;19.30;;
75386;SDS011;63966;47.914;22.266;2024-02-21T04:30:20;39.53;;;19.27;;
75386;SDS011;63966;47.914;22.266;2024-02-21T04:33:24;37.88;;;18.67;;
75386;SDS011;63966;47.914;22.266;2024-02-21T04:36:27;36.65;;;19.23;;
75386;SDS011;63966;47.914;22.266;2024-02-21T04:39:31;36.00;;;18.48;;
75386;SDS011;63966;47.914;22.266;2024-02-21T04:42:35;35.35;;;18.95;;
75386;SDS011;63966;47.914;22.266;2024-02-21T04:45:38;34.93;;;18.00;;
75386;SDS011;63966;47.914;22.266;2024-02-21T04:48:42;34.88;;;17.88;;
75386;SDS011;63966;47.914;22.266;2024-02-21T04:51:45;37.90;;;18.60;;
75386;SDS011;63966;47.914;22.266;2024-02-21T04:54:49;35.58;;;17.05;;
75386;SDS011;63966;47.914;22.266;2024-02-21T04:57:54;31.92;;;16.88;;
75386;SDS011;63966;47.914;22.266;2024-02-21T05:00:57;30.13;;;15.83;;
75386;SDS011;63966;47.914;22.266;2024-02-21T05:04:01;31.15;;;16.00;;
75386;SDS011;63966;47.914;22.266;2024-02-21T05:07:05;34.90;;;17.17;;
75386;SDS011;63966;47.914;22.266;2024-02-21T05:10:08;31.05;;;16.08;;
75386;SDS011;63966;47.914;22.266;2024-02-21T05:13:12;32.53;;;17.23;;
75386;SDS011;63966;47.914;22.266;2024-02-21T05:16:15;30.43;;;16.63;;
75386;SDS011;63966;47.914;22.266;2024-02-21T05:19:19;29.02;;;15.05;;
75386;SDS011;63966;47.914;22.266;2024-02-21T05:22:22;33.60;;;16.90;;
75386;SDS011;63966;47.914;22.266;2024-02-21T05:25:26;30.10;;;15.45;;
75386;SDS011;63966;47.914;22.266;2024-02-21T05:28:29;31.45;;;16.50;;
75386;SDS011;63966;47.914;22.266;2024-02-21T05:35:09;33.22;;;16.58;;
75386;SDS011;63966;47.914;22.266;2024-02-21T05:38:13;31.88;;;17.60;;
75386;SDS011;63966;47.914;22.266;2024-02-21T05:41:16;36.60;;;16.73;;
75386;SDS011;63966;47.914;22.266;2024-02-21T05:44:20;34.55;;;18.25;;
75386;SDS011;63966;47.914;22.266;2024-02-21T05:47:24;36.47;;;18.67;;
75386;SDS011;63966;47.914;22.266;2024-02-21T05:50:28;36.35;;;18.83;;
75386;SDS011;63966;47.914;22.266;2024-02-21T05:53:31;36.60;;;18.98;;
75386;SDS011;63966;47.914;22.266;2024-02-21T05:56:34;34.00;;;17.75;;
75386;SDS011;63966;47.914;22.266;2024-02-21T05:59:38;37.28;;;19.15;;
75386;SDS011;63966;47.914;22.266;2024-02-21T06:02:42;34.97;;;18.37;;
75386;SDS011;63966;47.914;22.266;2024-02-21T06:05:46;33.42;;;18.45;;
75386;SDS011;63966;47.914;22.266;2024-02-21T06:08:49;35.53;;;18.60;;
75386;SDS011;63966;47.914;22.266;2024-02-21T06:11:52;36.13;;;19.35;;
75386;SDS011;63966;47.914;22.266;2024-02-21T06:14:56;35.58;;;18.13;;
75386;SDS011;63966;47.914;22.266;2024-02-21T06:17:59;36.97;;;19.03;;
75386;SDS011;63966;47.914;22.266;2024-02-21T06:21:03;46.45;;;23.40;;
75386;SDS011;63966;47.914;22.266;2024-02-21T06:24:07;47.85;;;22.58;;
75386;SDS011;63966;47.914;22.266;2024-02-21T06:27:11;42.28;;;20.85;;
75386;SDS011;63966;47.914;22.266;2024-02-21T06:30:16;41.55;;;20.40;;
75386;SDS011;63966;47.914;22.266;2024-02-21T06:33:20;40.37;;;19.80;;
75386;SDS011;63966;47.914;22.266;2024-02-21T06:36:27;38.60;;;20.42;;
75386;SDS011;63966;47.914;22.266;2024-02-21T06:39:30;39.95;;;20.52;;
75386;SDS011;63966;47.914;22.266;2024-02-21T06:42:34;40.08;;;20.15;;
75386;SDS011;63966;47.914;22.266;2024-02-21T06:45:37;40.17;;;20.60;;
75386;SDS011;63966;47.914;22.266;2024-02-21T06:48:42;43.10;;;21.20;;
75386;SDS011;63966;47.914;22.266;2024-02-21T06:51:48;37.85;;;19.90;;
75386;SDS011;63966;47.914;22.266;2024-02-21T06:54:52;42.58;;;20.40;;
75386;SDS011;63966;47.914;22.266;2024-02-21T06:57:55;41.13;;;21.38;;
75386;SDS011;63966;47.914;22.266;2024-02-21T07:00:59;44.33;;;22.45;;
75386;SDS011;63966;47.914;22.266;2024-02-21T07:04:02;41.63;;;19.93;;
75386;SDS011;63966;47.914;22.266;2024-02-21T07:07:06;43.13;;;21.33;;
75386;SDS011;63966;47.914;22.266;2024-02-21T07:10:09;42.13;;;21.33;;
75386;SDS011;63966;47.914;22.266;2024-02-21T07:13:13;41.00;;;21.63;;
75386;SDS011;63966;47.914;22.266;2024-02-21T07:16:18;39.08;;;21.27;;
75386;SDS011;63966;47.914;22.266;2024-02-21T07:19:21;39.17;;;19.77;;
75386;SDS011;63966;47.914;22.266;2024-02-21T07:22:25;42.15;;;22.17;;
75386;SDS011;63966;47.914;22.266;2024-02-21T07:25:28;43.72;;;21.10;;
75386;SDS011;63966;47.914;22.266;2024-02-21T07:28:32;41.58;;;21.73;;
75386;SDS011;63966;47.914;22.266;2024-02-21T07:31:42;44.13;;;22.92;;
75386;SDS011;63966;47.914;22.266;2024-02-21T07:34:45;45.53;;;22.10;;
75386;SDS011;63966;47.914;22.266;2024-02-21T07:37:49;50.63;;;22.75;;
75386;SDS011;63966;47.914;22.266;2024-02-21T07:40:53;46.63;;;23.80;;
75386;SDS011;63966;47.914;22.266;2024-02-21T07:43:56;46.70;;;22.73;;
75386;SDS011;63966;47.914;22.266;2024-02-21T07:47:00;45.47;;;23.48;;
75386;SDS011;63966;47.914;22.266;2024-02-21T07:50:04;40.53;;;21.50;;
75386;SDS011;63966;47.914;22.266;2024-02-21T07:53:08;44.85;;;22.25;;
75386;SDS011;63966;47.914;22.266;2024-02-21T07:56:11;42.88;;;21.23;;
75386;SDS011;63966;47.914;22.266;2024-02-21T07:59:16;38.92;;;20.30;;
75386;SDS011;63966;47.914;22.266;2024-02-21T08:02:20;39.90;;;21.20;;
75386;SDS011;63966;47.914;22.266;2024-02-21T08:05:24;41.90;;;20.73;;
75386;SDS011;63966;47.914;22.266;2024-02-21T08:08:30;40.55;;;21.38;;
75386;SDS011;63966;47.914;22.266;2024-02-21T08:11:33;40.40;;;20.98;;
75386;SDS011;63966;47.914;22.266;2024-02-21T08:14:37;42.03;;;21.17;;
75386;SDS011;63966;47.914;22.266;2024-02-21T08:17:44;52.42;;;27.15;;
75386;SDS011;63966;47.914;22.266;2024-02-21T08:20:48;43.13;;;23.03;;
75386;SDS011;63966;47.914;22.266;2024-02-21T08:23:51;43.05;;;21.42;;
75386;SDS011;63966;47.914;22.266;2024-02-21T08:26:56;39.53;;;22.35;;
75386;SDS011;63966;47.914;22.266;2024-02-21T08:30:00;38.88;;;20.30;;
75386;SDS011;63966;47.914;22.266;2024-02-21T08:33:03;33.60;;;17.00;;
75386;SDS011;63966;47.914;22.266;2024-02-21T08:36:07;34.40;;;18.37;;
75386;SDS011;63966;47.914;22.266;2024-02-21T08:39:10;32.50;;;17.38;;
75386;SDS011;63966;47.914;22.266;2024-02-21T08:42:17;33.67;;;18.48;;
75386;SDS011;63966;47.914;22.266;2024-02-21T08:45:20;32.88;;;18.20;;
75386;SDS011;63966;47.914;22.266;2024-02-21T08:48:24;34.75;;;18.05;;
75386;SDS011;63966;47.914;22.266;2024-02-21T08:51:28;32.90;;;18.63;;
75386;SDS011;63966;47.914;22.266;2024-02-21T08:54:31;28.65;;;16.45;;
75386;SDS011;63966;47.914;22.266;2024-02-21T08:57:36;30.35;;;15.38;;
75386;SDS011;63966;47.914;22.266;2024-02-21T09:00:41;23.38;;;14.13;;
75386;SDS011;63966;47.914;22.266;2024-02-21T09:03:45;25.20;;;13.52;;
75386;SDS011;63966;47.914;22.266;2024-02-21T09:06:48;24.60;;;13.93;;
75386;SDS011;63966;47.914;22.266;2024-02-21T09:09:52;23.23;;;13.57;;
75386;SDS011;63966;47.914;22.266;2024-02-21T09:12:55;26.80;;;13.63;;
75386;SDS011;63966;47.914;22.266;2024-02-21T09:15:59;25.67;;;14.00;;
75386;SDS011;63966;47.914;22.266;2024-02-21T09:19:04;24.55;;;13.45;;
75386;SDS011;63966;47.914;22.266;2024-02-21T09:22:08;21.40;;;12.13;;
75386;SDS011;63966;47.914;22.266;2024-02-21T09:25:12;23.17;;;13.40;;
75386;SDS011;63966;47.914;22.266;2024-02-21T09:28:15;25.67;;;13.77;;
75386;SDS011;63966;47.914;22.266;2024-02-21T09:31:19;22.33;;;13.20;;
75386;SDS011;63966;47.914;22.266;2024-02-21T09:34:22;23.83;;;13.23;;
75386;SDS011;63966;47.914;22.266;2024-02-21T09:37:26;26.53;;;14.03;;
75386;SDS011;63966;47.914;22.266;2024-02-21T09:40:30;21.98;;;12.48;;
75386;SDS011;63966;47.914;22.266;2024-02-21T09:43:34;22.45;;;12.80;;
75386;SDS011;63966;47.914;22.266;2024-02-21T09:47:01;22.35;;;12.02;;
75386;SDS011;63966;47.914;22.266;2024-02-21T09:50:10;20.30;;;11.25;;
75386;SDS011;63966;47.914;22.266;2024-02-21T09:53:14;20.80;;;11.73;;
75386;SDS011;63966;47.914;22.266;2024-02-21T09:56:18;22.30;;;12.45;;
75386;SDS011;63966;47.914;22.266;2024-02-21T09:59:21;21.17;;;11.45;;
75386;SDS011;63966;47.914;22.266;2024-02-21T10:02:26;22.40;;;11.80;;
75386;SDS011;63966;47.914;22.266;2024-02-21T10:05:33;21.25;;;11.40;;
75386;SDS011;63966;47.914;22.266;2024-02-21T10:08:38;25.50;;;12.40;;
75386;SDS011;63966;47.914;22.266;2024-02-21T10:11:41;22.10;;;11.68;;
75386;SDS011;63966;47.914;22.266;2024-02-21T10:14:45;20.17;;;11.70;;
75386;SDS011;63966;47.914;22.266;2024-02-21T10:17:49;21.65;;;11.18;;
75386;SDS011;63966;47.914;22.266;2024-02-21T10:21:06;17.75;;;10.00;;
75386;SDS011;63966;47.914;22.266;2024-02-21T10:24:12;18.43;;;10.10;;
75386;SDS011;63966;47.914;22.266;2024-02-21T10:27:16;17.30;;;8.90;;
75386;SDS011;63966;47.914;22.266;2024-02-21T10:30:20;14.40;;;8.05;;
75386;SDS011;63966;47.914;22.266;2024-02-21T10:33:23;12.93;;;7.72;;
75386;SDS011;63966;47.914;22.266;2024-02-21T10:36:30;10.00;;;5.75;;
75386;SDS011;63966;47.914;22.266;2024-02-21T10:39:42;12.47;;;7.20;;
75386;SDS011;63966;47.914;22.266;2024-02-21T10:42:48;14.95;;;7.88;;
75386;SDS011;63966;47.914;22.266;2024-02-21T10:45:56;15.68;;;8.20;;
75386;SDS011;63966;47.914;22.266;2024-02-21T10:49:07;16.17;;;8.73;;
75386;SDS011;63966;47.914;22.266;2024-02-21T10:52:25;18.42;;;10.77;;
75386;SDS011;63966;47.914;22.266;2024-02-21T10:56:11;20.80;;;10.60;;
75386;SDS011;63966;47.914;22.266;2024-02-21T10:59:32;19.83;;;10.57;;
75386;SDS011;63966;47.914;22.266;2024-02-21T11:02:37;21.00;;;10.93;;
75386;SDS011;63966;47.914;22.266;2024-02-21T11:05:42;18.13;;;10.73;;
75386;SDS011;63966;47.914;22.266;2024-02-21T11:08:48;17.98;;;10.07;;
75386;SDS011;63966;47.914;22.266;2024-02-21T11:12:09;18.47;;;10.23;;
75386;SDS011;63966;47.914;22.266;2024-02-21T11:15:14;17.98;;;9.90;;
75386;SDS011;63966;47.914;22.266;2024-02-21T11:18:24;18.08;;;10.25;;
75386;SDS011;63966;47.914;22.266;2024-02-21T11:21:37;19.17;;;10.40;;
75386;SDS011;63966;47.914;22.266;2024-02-21T11:24:43;20.80;;;11.40;;
75386;SDS011;63966;47.914;22.266;2024-02-21T11:27:47;23.33;;;11.37;;
75386;SDS011;63966;47.914;22.266;2024-02-21T11:30:51;20.58;;;11.45;;
75386;SDS011;63966;47.914;22.266;2024-02-21T11:33:57;18.17;;;10.23;;
75386;SDS011;63966;47.914;22.266;2024-02-21T11:37:03;20.00;;;11.82;;
75386;SDS011;63966;47.914;22.266;2024-02-21T11:40:20;22.60;;;12.23;;
75386;SDS011;63966;47.914;22.266;2024-02-21T11:43:23;20.23;;;11.43;;
75386;SDS011;63966;47.914;22.266;2024-02-21T11:46:28;22.77;;;11.98;;
75386;SDS011;63966;47.914;22.266;2024-02-21T11:49:35;19.20;;;10.45;;
75386;SDS011;63966;47.914;22.266;2024-02-21T11:52:41;18.58;;;10.55;;
75386;SDS011;63966;47.914;22.266;2024-02-21T11:55:45;19.05;;;10.82;;
75386;SDS011;63966;47.914;22.266;2024-02-21T11:58:49;18.73;;;10.20;;
75386;SDS011;63966;47.914;22.266;2024-02-21T12:01:53;21.20;;;11.13;;
75386;SDS011;63966;47.914;22.266;2024-02-21T12:04:57;20.15;;;10.75;;
75386;SDS011;63966;47.914;22.266;2024-02-21T12:08:01;18.35;;;9.75;;
75386;SDS011;63966;47.914;22.266;2024-02-21T12:11:04;17.67;;;10.02;;
75386;SDS011;63966;47.914;22.266;2024-02-21T12:14:24;17.27;;;8.87;;
75386;SDS011;63966;47.914;22.266;2024-02-21T12:17:28;18.75;;;9.10;;
75386;SDS011;63966;47.914;22.266;2024-02-21T12:20:39;15.23;;;8.20;;
75386;SDS011;63966;47.914;22.266;2024-02-21T12:23:43;14.18;;;8.40;;
75386;SDS011;63966;47.914;22.266;2024-02-21T12:27:07;11.02;;;5.80;;
75386;SDS011;63966;47.914;22.266;2024-02-21T12:30:11;13.40;;;6.93;;
75386;SDS011;63966;47.914;22.266;2024-02-21T12:33:14;14.13;;;7.70;;
75386;SDS011;63966;47.914;22.266;2024-02-21T12:36:18;21.30;;;14.10;;
75386;SDS011;63966;47.914;22.266;2024-02-21T12:39:21;23.63;;;13.40;;
75386;SDS011;63966;47.914;22.266;2024-02-21T12:42:25;23.17;;;13.85;;
75386;SDS011;63966;47.914;22.266;2024-02-21T12:45:29;20.50;;;11.33;;
75386;SDS011;63966;47.914;22.266;2024-02-21T12:48:32;22.13;;;11.35;;
75386;SDS011;63966;47.914;22.266;2024-02-21T12:51:36;19.42;;;10.90;;
75386;SDS011;63966;47.914;22.266;2024-02-21T12:54:42;20.88;;;10.88;;
75386;SDS011;63966;47.914;22.266;2024-02-21T12:57:45;18.92;;;10.32;;
75386;SDS011;63966;47.914;22.266;2024-02-21T13:00:49;19.43;;;10.60;;
75386;SDS011;63966;47.914;22.266;2024-02-21T13:03:52;21.08;;;11.45;;
75386;SDS011;63966;47.914;22.266;2024-02-21T13:06:56;20.48;;;11.48;;
75386;SDS011;63966;47.914;22.266;2024-02-21T13:09:59;26.17;;;17.08;;
75386;SDS011;63966;47.914;22.266;2024-02-21T13:13:03;23.42;;;13.35;;
75386;SDS011;63966;47.914;22.266;2024-02-21T13:16:06;27.70;;;17.27;;
75386;SDS011;63966;47.914;22.266;2024-02-21T13:19:10;28.00;;;16.20;;
75386;SDS011;63966;47.914;22.266;2024-02-21T13:22:16;22.35;;;12.48;;
75386;SDS011;63966;47.914;22.266;2024-02-21T13:25:22;22.08;;;12.93;;
75386;SDS011;63966;47.914;22.266;2024-02-21T13:28:26;21.02;;;11.63;;
75386;SDS011;63966;47.914;22.266;2024-02-21T13:31:30;21.00;;;11.57;;
75386;SDS011;63966;47.914;22.266;2024-02-21T13:34:33;24.85;;;12.10;;
75386;SDS011;63966;47.914;22.266;2024-02-21T13:37:37;21.23;;;11.65;;
75386;SDS011;63966;47.914;22.266;2024-02-21T13:40:41;22.75;;;12.43;;
75386;SDS011;63966;47.914;22.266;2024-02-21T13:43:46;22.75;;;12.88;;
75386;SDS011;63966;47.914;22.266;2024-02-21T13:46:50;23.70;;;12.43;;
75386;SDS011;63966;47.914;22.266;2024-02-21T13:49:53;23.50;;;12.65;;
75386;SDS011;63966;47.914;22.266;2024-02-21T13:52:58;22.40;;;12.15;;
75386;SDS011;63966;47.914;22.266;2024-02-21T13:56:02;20.23;;;11.30;;
75386;SDS011;63966;47.914;22.266;2024-02-21T13:59:05;20.50;;;11.38;;
75386;SDS011;63966;47.914;22.266;2024-02-21T14:02:09;22.97;;;11.83;;
75386;SDS011;63966;47.914;22.266;2024-02-21T14:05:13;25.60;;;12.63;;
75386;SDS011;63966;47.914;22.266;2024-02-21T14:08:17;24.02;;;12.82;;
75386;SDS011;63966;47.914;22.266;2024-02-21T14:11:21;24.75;;;13.18;;
75386;SDS011;63966;47.914;22.266;2024-02-21T14:14:26;24.00;;;12.70;;
75386;SDS011;63966;47.914;22.266;2024-02-21T14:17:29;19.07;;;10.50;;
75386;SDS011;63966;47.914;22.266;2024-02-21T14:20:33;17.63;;;10.38;;
75386;SDS011;63966;47.914;22.266;2024-02-21T14:23:37;17.02;;;9.85;;
75386;SDS011;63966;47.914;22.266;2024-02-21T14:26:41;20.52;;;10.27;;
75386;SDS011;63966;47.914;22.266;2024-02-21T14:29:44;19.95;;;10.70;;
75386;SDS011;63966;47.914;22.266;2024-02-21T14:32:47;22.73;;;11.87;;
75386;SDS011;63966;47.914;22.266;2024-02-21T14:35:51;19.70;;;10.82;;
75386;SDS011;63966;47.914;22.266;2024-02-21T14:38:55;23.80;;;13.32;;
75386;SDS011;63966;47.914;22.266;2024-02-21T14:41:58;29.02;;;15.18;;
75386;SDS011;63966;47.914;22.266;2024-02-21T14:45:02;28.30;;;15.77;;
75386;SDS011;63966;47.914;22.266;2024-02-21T14:48:07;27.80;;;15.43;;
75386;SDS011;63966;47.914;22.266;2024-02-21T14:51:11;27.65;;;13.88;;
75386;SDS011;63966;47.914;22.266;2024-02-21T14:54:14;24.30;;;13.73;;
75386;SDS011;63966;47.914;22.266;2024-02-21T14:57:18;27.60;;;14.18;;
75386;SDS011;63966;47.914;22.266;2024-02-21T15:00:22;27.35;;;14.98;;
75386;SDS011;63966;47.914;22.266;2024-02-21T15:03:31;26.37;;;15.37;;
75386;SDS011;63966;47.914;22.266;2024-02-21T15:06:35;27.98;;;15.23;;
75386;SDS011;63966;47.914;22.266;2024-02-21T15:09:39;30.30;;;15.15;;
75386;SDS011;63966;47.914;22.266;2024-02-21T15:12:43;24.98;;;13.60;;
75386;SDS011;63966;47.914;22.266;2024-02-21T15:15:47;29.58;;;16.52;;
75386;SDS011;63966;47.914;22.266;2024-02-21T15:18:51;30.53;;;16.43;;
75386;SDS011;63966;47.914;22.266;2024-02-21T15:21:54;29.33;;;16.45;;
75386;SDS011;63966;47.914;22.266;2024-02-21T15:24:58;36.50;;;19.90;;
75386;SDS011;63966;47.914;22.266;2024-02-21T15:28:03;77.70;;;34.95;;
75386;SDS011;63966;47.914;22.266;2024-02-21T15:31:07;74.20;;;37.33;;
75386;SDS011;63966;47.914;22.266;2024-02-21T15:34:10;69.83;;;31.97;;
75386;SDS011;63966;47.914;22.266;2024-02-21T15:37:14;56.65;;;30.33;;
75386;SDS011;63966;47.914;22.266;2024-02-21T15:40:17;54.13;;;27.65;;
75386;SDS011;63966;47.914;22.266;2024-02-21T15:43:21;43.63;;;22.95;;
75386;SDS011;63966;47.914;22.266;2024-02-21T15:46:27;33.03;;;19.85;;
75386;SDS011;63966;47.914;22.266;2024-02-21T15:49:30;32.17;;;18.67;;
75386;SDS011;63966;47.914;22.266;2024-02-21T15:52:35;32.05;;;16.10;;
75386;SDS011;63966;47.914;22.266;2024-02-21T15:55:39;29.08;;;15.88;;
75386;SDS011;63966;47.914;22.266;2024-02-21T15:58:43;47.15;;;24.27;;
75386;SDS011;63966;47.914;22.266;2024-02-21T16:01:46;50.60;;;26.48;;
75386;SDS011;63966;47.914;22.266;2024-02-21T16:04:50;42.27;;;21.90;;
75386;SDS011;63966;47.914;22.266;2024-02-21T16:07:54;34.13;;;18.80;;
75386;SDS011;63966;47.914;22.266;2024-02-21T16:10:58;32.83;;;17.85;;
75386;SDS011;63966;47.914;22.266;2024-02-21T16:14:02;41.72;;;22.17;;
75386;SDS011;63966;47.914;22.266;2024-02-21T16:17:06;66.50;;;37.30;;
75386;SDS011;63966;47.914;22.266;2024-02-21T16:20:11;62.03;;;38.97;;
75386;SDS011;63966;47.914;22.266;2024-02-21T16:23:26;62.88;;;36.72;;
75386;SDS011;63966;47.914;22.266;2024-02-21T16:26:30;68.38;;;37.20;;
75386;SDS011;63966;47.914;22.266;2024-02-21T16:29:40;45.60;;;25.95;;
75386;SDS011;63966;47.914;22.266;2024-02-21T16:32:43;34.17;;;18.38;;
75386;SDS011;63966;47.914;22.266;2024-02-21T16:35:47;29.00;;;15.07;;
75386;SDS011;63966;47.914;22.266;2024-02-21T16:38:50;28.73;;;14.60;;
75386;SDS011;63966;47.914;22.266;2024-02-21T16:41:55;24.13;;;12.43;;
75386;SDS011;63966;47.914;22.266;2024-02-21T16:45:03;23.33;;;12.57;;
75386;SDS011;63966;47.914;22.266;2024-02-21T16:48:08;26.20;;;12.77;;
75386;SDS011;63966;47.914;22.266;2024-02-21T16:51:11;24.87;;;12.83;;
75386;SDS011;63966;47.914;22.266;2024-02-21T16:54:24;24.52;;;13.15;;
75386;SDS011;63966;47.914;22.266;2024-02-21T16:57:28;26.63;;;14.07;;
75386;SDS011;63966;47.914;22.266;2024-02-21T17:00:31;23.25;;;11.52;;
75386;SDS011;63966;47.914;22.266;2024-02-21T17:03:35;22.20;;;11.30;;
75386;SDS011;63966;47.914;22.266;2024-02-21T17:06:39;22.07;;;10.90;;
75386;SDS011;63966;47.914;22.266;2024-02-21T17:09:42;23.85;;;12.00;;
75386;SDS011;63966;47.914;22.266;2024-02-21T17:12:46;28.67;;;13.48;;
75386;SDS011;63966;47.914;22.266;2024-02-21T17:15:50;33.70;;;15.27;;
75386;SDS011;63966;47.914;22.266;2024-02-21T17:18:54;26.00;;;13.75;;
75386;SDS011;63966;47.914;22.266;2024-02-21T17:21:57;23.37;;;12.80;;
75386;SDS011;63966;47.914;22.266;2024-02-21T17:25:01;23.17;;;13.10;;
75386;SDS011;63966;47.914;22.266;2024-02-21T17:28:05;24.25;;;15.38;;
75386;SDS011;63966;47.914;22.266;2024-02-21T17:31:09;42.28;;;23.67;;
75386;SDS011;63966;47.914;22.266;2024-02-21T17:34:13;29.95;;;17.73;;
75386;SDS011;63966;47.914;22.266;2024-02-21T17:37:16;27.47;;;16.33;;
75386;SDS011;63966;47.914;22.266;2024-02-21T17:40:20;31.55;;;18.10;;
75386;SDS011;63966;47.914;22.266;2024-02-21T17:43:24;29.35;;;17.45;;
75386;SDS011;63966;47.914;22.266;2024-02-21T17:46:28;35.40;;;20.58;;
75386;SDS011;63966;47.914;22.266;2024-02-21T17:49:32;39.42;;;23.45;;